• Join FlightAware (Why Join?)
  • Login
  • US Flag 
06:22AM EDT


 

Airport Tracker/Info


-or-


 

Live Flight TrackerFlight Track Log ✈ UAL6044 ✈ 18-Apr-2013 ✈ KIND - KIAD

Flight Track Log - Related Links

Times and Time Zones

All times are in EDT time to prevent confusion due to time zone crossing. See the UAL6044 flight status page for this flight to view local times or setup timezone preferences in your user account.

Time Position Orientation Groundspeed Altitude Reporting Facility
EDT Latitude Longitude Course Direction KTS MPH feet Rate Location/Type
03:48PM 39.6833 -86.3333 237° Southwest 172 198 2,600  Level Indianapolis TRACON
03:50PM 39.6167 -86.3667 201° Southwest 197 227 5,300 2,400 Climbing Indianapolis TRACON
03:51PM 39.5833 -86.3000 123° Southeast 290 334 8,000 2,100 Climbing Indianapolis TRACON
03:52PM 39.5925 -86.2011 83° East 323 372 9,800 1,800 Climbing Indianapolis Center
03:53PM 39.6269 -86.0842 69° East 337 388 11,800 1,620 Climbing Indianapolis Center
03:54PM 39.6675 -85.9578 67° East 367 422 13,200 1,260 Climbing Indianapolis Center
03:55PM 39.7169 -85.7986 68° East 405 466 14,500 1,320 Climbing Indianapolis Center
03:56PM 39.7611 -85.6531 68° East 425 489 16,000 1,440 Climbing Indianapolis Center
03:57PM 39.8050 -85.5067 69° East 430 495 17,500 1,500 Climbing Indianapolis Center
03:58PM 39.8483 -85.3592 69° East 432 497 19,100 1,260 Climbing Indianapolis Center
03:59PM 39.8872 -85.2056 72° East 439 505 20,200 1,020 Climbing Indianapolis Center
04:00PM 39.8939 -85.0444 87° East 441 507 21,300 1,020 Climbing Indianapolis Center
04:01PM 39.9008 -84.8808 87° East 449 517 22,300 1,080 Climbing Indianapolis Center
04:02PM 39.9119 -84.6856 86° East 457 526 23,600 1,200 Climbing Indianapolis Center
04:03PM 39.9219 -84.5192 85° East 458 527 24,900 660 Climbing Indianapolis Center
04:04PM 39.9294 -84.3508 87° East 461 531 25,000  Climbing Indianapolis Center
04:05PM 39.9431 -84.1758 84° East 482 555 25,000  Level Indianapolis Center
04:06PM 39.9681 -83.9986 80° East 489 563 25,000  Level Indianapolis Center
04:07PM 39.9903 -83.8294 80° East 472 543 25,000  Level Indianapolis Center
04:08PM 40.0136 -83.6567 80° East 474 545 25,000  Level Indianapolis Center
04:09PM 40.0367 -83.4817 80° East 477 549 25,000  Level Indianapolis Center
04:10PM 40.0603 -83.3056 80° East 480 552 25,000  Level Indianapolis Center
04:11PM 40.0725 -83.1317 85° East 471 542 25,000  Level Indianapolis Center
04:12PM 40.0503 -82.9614 100° East 470 541 25,000  Level Indianapolis Center
04:13PM 40.0253 -82.7947 101° East 464 534 25,000  Level Indianapolis Center
04:14PM 40.0011 -82.6300 101° East 459 528 25,000  Level Indianapolis Center
04:15PM 39.9731 -82.4411 101° East 452 520 25,000 -60 Level Indianapolis Center
04:16PM 39.9242 -82.2944 113° Southeast 440 506 24,900 -60 Descending Indianapolis Center
04:17PM 39.8564 -82.1625 124° Southeast 435 501 24,900  Level Indianapolis Center
04:18PM 39.8228 -82.0058 106° East 451 519 24,900  Level Indianapolis Center
04:19PM 39.8033 -81.8400 99° East 459 528 25,000  Climbing Indianapolis Center
04:21PM 39.7839 -81.6736 99° East 462 532 25,000  Level Indianapolis Center
04:22PM 39.7650 -81.5058 98° East 464 534 25,000  Level Indianapolis Center
04:22PM 39.7517 -81.3689 97° East 462 532 25,000  Level Cleveland Center
04:23PM 39.7297 -81.2011 100° East 467 537 25,000  Level Cleveland Center
04:24PM 39.7097 -81.0364 99° East 467 537 25,000  Level Cleveland Center
04:25PM 39.6875 -80.8717 100° East 467 537 25,000  Level Cleveland Center
04:26PM 39.6647 -80.7072 100° East 467 537 25,000 -60 Level Cleveland Center
04:27PM 39.6294 -80.5292 104° East 467 537 24,900 -480 Descending Cleveland Center
04:28PM 39.5667 -80.3919 121° Southeast 453 521 24,100 -480 Descending Cleveland Center
04:29PM 39.5553 -80.2400 96° East 477 549 24,000 -60 Descending Washington Center
04:30PM 39.5419 -80.0967 97° East 464 534 24,000  Level Washington Center
04:31PM 39.5311 -79.9344 95° East 459 528 24,000  Level Washington Center
04:32PM 39.5183 -79.7722 96° East 454 522 24,000  Level Washington Center
04:33PM 39.5069 -79.6128 95° East 449 517 24,000  Level Washington Center
04:34PM 39.4872 -79.4531 99° East 449 517 24,000  Level Washington Center
04:35PM 39.4589 -79.2956 103° East 449 517 24,000 -300 Level Washington Center
04:36PM 39.4300 -79.1464 104° East 449 517 23,500 -1,200 Descending Washington Center
04:37PM 39.4011 -78.9944 104° East 425 489 21,700 -1,620 Descending Washington Center
04:38PM 39.3778 -78.8592 103° East 400 460 20,300 -1,620 Descending Washington Center
04:39PM 39.3542 -78.7267 103° East 384 442 18,500 -1,800 Descending Washington Center
04:40PM 39.3283 -78.5939 104° East 379 436 16,800 -2,100 Descending Washington Center
04:41PM 39.3042 -78.4669 104° East 374 430 14,400 -2,400 Descending Washington Center
04:42PM 39.2528 -78.3522 120° Southeast 369 425 12,000 -2,220 Descending Washington Center
04:43PM 39.1969 -78.2403 123° Southeast 364 419 10,000 -1,080 Descending Washington Center
04:44PM 39.1450 -78.1342 122° Southeast 364 419 9,900 -420 Descending Washington Center
04:45PM 39.1031 -78.0444 121° Southeast 329 379 9,200 -480 Descending Washington Center
04:46PM 39.0611 -77.9600 123° Southeast 303 349 9,000 -600 Descending Washington Center
04:47PM 39.0189 -77.8733 122° Southeast 288 331 8,000 -1,020 Descending Washington Center
04:48PM 38.9808 -77.7919 121° Southeast 274 315 7,000 -960 Descending Washington Center
04:49PM 38.9614 -77.7114 107° East 266 306 6,100 -480 Descending Washington Center
04:51PM 38.9833 -77.6000 76° East 291 335 6,000 -120 Descending Potomac TRACON
04:52PM 39.0667 -77.5667 17° North 290 334 5,900 -600 Descending Potomac TRACON
04:53PM 39.1333 -77.5667 360° North 268 308 4,900 -1,200 Descending Potomac TRACON
04:54PM 39.1667 -77.5000 57° Northeast 246 283 3,500 -1,020 Descending Potomac TRACON
04:55PM 39.1333 -77.4667 142° Southeast 202 232 2,900 -600 Descending Potomac TRACON